sensor_id;sensor_type;location;lat;lon;timestamp;P1;durP1;ratioP1;P2;durP2;ratioP2
7933;SDS011;4012;48.896;9.192;2023-04-09T00:01:01;8.67;;;7.50;;
7933;SDS011;4012;48.896;9.192;2023-04-09T00:03:30;8.20;;;6.87;;
7933;SDS011;4012;48.896;9.192;2023-04-09T00:05:56;8.73;;;6.80;;
7933;SDS011;4012;48.896;9.192;2023-04-09T00:08:22;9.30;;;7.37;;
7933;SDS011;4012;48.896;9.192;2023-04-09T00:10:48;7.93;;;7.13;;
7933;SDS011;4012;48.896;9.192;2023-04-09T00:13:14;8.77;;;7.23;;
7933;SDS011;4012;48.896;9.192;2023-04-09T00:15:39;9.80;;;7.97;;
7933;SDS011;4012;48.896;9.192;2023-04-09T00:18:05;11.07;;;7.50;;
7933;SDS011;4012;48.896;9.192;2023-04-09T00:20:31;8.43;;;7.37;;
7933;SDS011;4012;48.896;9.192;2023-04-09T00:22:56;16.17;;;9.83;;
7933;SDS011;4012;48.896;9.192;2023-04-09T00:25:22;8.63;;;7.73;;
7933;SDS011;4012;48.896;9.192;2023-04-09T00:27:48;8.37;;;6.83;;
7933;SDS011;4012;48.896;9.192;2023-04-09T00:30:14;10.55;;;7.80;;
7933;SDS011;4012;48.896;9.192;2023-04-09T00:32:39;8.83;;;7.50;;
7933;SDS011;4012;48.896;9.192;2023-04-09T00:35:05;7.73;;;6.80;;
7933;SDS011;4012;48.896;9.192;2023-04-09T00:37:32;10.87;;;7.37;;
7933;SDS011;4012;48.896;9.192;2023-04-09T00:39:57;7.83;;;7.03;;
7933;SDS011;4012;48.896;9.192;2023-04-09T00:42:23;8.17;;;6.93;;
7933;SDS011;4012;48.896;9.192;2023-04-09T00:44:48;8.13;;;6.95;;
7933;SDS011;4012;48.896;9.192;2023-04-09T00:47:14;10.40;;;7.07;;
7933;SDS011;4012;48.896;9.192;2023-04-09T00:49:39;7.83;;;7.03;;
7933;SDS011;4012;48.896;9.192;2023-04-09T00:52:05;10.30;;;7.73;;
7933;SDS011;4012;48.896;9.192;2023-04-09T00:54:31;9.33;;;7.67;;
7933;SDS011;4012;48.896;9.192;2023-04-09T00:56:57;9.23;;;7.40;;
7933;SDS011;4012;48.896;9.192;2023-04-09T00:59:24;9.57;;;7.20;;
7933;SDS011;4012;48.896;9.192;2023-04-09T01:01:50;10.67;;;6.83;;
7933;SDS011;4012;48.896;9.192;2023-04-09T01:04:15;8.67;;;6.37;;
7933;SDS011;4012;48.896;9.192;2023-04-09T01:06:44;8.90;;;7.17;;
7933;SDS011;4012;48.896;9.192;2023-04-09T01:09:49;6.97;;;6.03;;
7933;SDS011;4012;48.896;9.192;2023-04-09T01:15:07;8.03;;;6.50;;
7933;SDS011;4012;48.896;9.192;2023-04-09T01:17:49;8.43;;;6.80;;
7933;SDS011;4012;48.896;9.192;2023-04-09T01:20:34;7.63;;;6.10;;
7933;SDS011;4012;48.896;9.192;2023-04-09T01:23:18;7.10;;;6.37;;
7933;SDS011;4012;48.896;9.192;2023-04-09T01:26:06;7.97;;;6.47;;
7933;SDS011;4012;48.896;9.192;2023-04-09T01:28:41;6.80;;;6.10;;
7933;SDS011;4012;48.896;9.192;2023-04-09T01:31:10;8.70;;;6.30;;
7933;SDS011;4012;48.896;9.192;2023-04-09T01:33:38;7.13;;;6.17;;
7933;SDS011;4012;48.896;9.192;2023-04-09T01:36:05;7.03;;;6.10;;
7933;SDS011;4012;48.896;9.192;2023-04-09T01:38:32;8.23;;;6.00;;
7933;SDS011;4012;48.896;9.192;2023-04-09T01:41:00;8.30;;;6.23;;
7933;SDS011;4012;48.896;9.192;2023-04-09T01:43:27;6.83;;;5.30;;
7933;SDS011;4012;48.896;9.192;2023-04-09T01:45:55;6.17;;;5.27;;
7933;SDS011;4012;48.896;9.192;2023-04-09T01:48:23;6.50;;;5.73;;
7933;SDS011;4012;48.896;9.192;2023-04-09T01:50:49;7.33;;;6.40;;
7933;SDS011;4012;48.896;9.192;2023-04-09T01:53:15;6.77;;;5.67;;
7933;SDS011;4012;48.896;9.192;2023-04-09T01:55:41;7.07;;;6.00;;
7933;SDS011;4012;48.896;9.192;2023-04-09T01:58:07;7.03;;;6.03;;
7933;SDS011;4012;48.896;9.192;2023-04-09T02:00:39;9.07;;;6.70;;
7933;SDS011;4012;48.896;9.192;2023-04-09T02:03:17;7.60;;;5.97;;
7933;SDS011;4012;48.896;9.192;2023-04-09T02:06:06;9.20;;;6.47;;
7933;SDS011;4012;48.896;9.192;2023-04-09T02:08:52;9.10;;;6.57;;
7933;SDS011;4012;48.896;9.192;2023-04-09T02:11:18;8.83;;;6.23;;
7933;SDS011;4012;48.896;9.192;2023-04-09T02:13:47;8.27;;;6.47;;
7933;SDS011;4012;48.896;9.192;2023-04-09T02:16:14;8.50;;;6.90;;
7933;SDS011;4012;48.896;9.192;2023-04-09T02:18:41;8.33;;;6.63;;
7933;SDS011;4012;48.896;9.192;2023-04-09T02:21:06;8.73;;;6.37;;
7933;SDS011;4012;48.896;9.192;2023-04-09T02:23:32;9.93;;;6.77;;
7933;SDS011;4012;48.896;9.192;2023-04-09T02:25:58;9.27;;;6.93;;
7933;SDS011;4012;48.896;9.192;2023-04-09T02:28:23;7.67;;;6.40;;
7933;SDS011;4012;48.896;9.192;2023-04-09T02:30:49;6.70;;;6.00;;
7933;SDS011;4012;48.896;9.192;2023-04-09T02:33:15;8.03;;;6.33;;
7933;SDS011;4012;48.896;9.192;2023-04-09T02:35:40;7.13;;;6.30;;
7933;SDS011;4012;48.896;9.192;2023-04-09T02:38:07;8.70;;;7.10;;
7933;SDS011;4012;48.896;9.192;2023-04-09T02:40:41;8.93;;;6.87;;
7933;SDS011;4012;48.896;9.192;2023-04-09T02:43:07;7.87;;;6.90;;
7933;SDS011;4012;48.896;9.192;2023-04-09T02:45:33;6.80;;;6.00;;
7933;SDS011;4012;48.896;9.192;2023-04-09T02:47:59;9.07;;;6.93;;
7933;SDS011;4012;48.896;9.192;2023-04-09T02:50:25;7.60;;;5.63;;
7933;SDS011;4012;48.896;9.192;2023-04-09T02:52:50;7.67;;;6.43;;
7933;SDS011;4012;48.896;9.192;2023-04-09T02:55:17;8.90;;;6.43;;
7933;SDS011;4012;48.896;9.192;2023-04-09T02:57:43;7.70;;;6.13;;
7933;SDS011;4012;48.896;9.192;2023-04-09T03:00:09;7.77;;;6.27;;
7933;SDS011;4012;48.896;9.192;2023-04-09T03:02:35;6.83;;;6.13;;
7933;SDS011;4012;48.896;9.192;2023-04-09T03:05:00;6.83;;;5.93;;
7933;SDS011;4012;48.896;9.192;2023-04-09T03:07:26;9.10;;;6.47;;
7933;SDS011;4012;48.896;9.192;2023-04-09T03:09:52;8.13;;;6.63;;
7933;SDS011;4012;48.896;9.192;2023-04-09T03:12:17;11.43;;;7.57;;
7933;SDS011;4012;48.896;9.192;2023-04-09T03:14:43;9.43;;;6.17;;
7933;SDS011;4012;48.896;9.192;2023-04-09T03:17:08;8.77;;;6.87;;
7933;SDS011;4012;48.896;9.192;2023-04-09T03:19:34;8.43;;;6.43;;
7933;SDS011;4012;48.896;9.192;2023-04-09T03:22:00;7.30;;;6.20;;
7933;SDS011;4012;48.896;9.192;2023-04-09T03:24:25;9.37;;;6.67;;
7933;SDS011;4012;48.896;9.192;2023-04-09T03:26:51;10.17;;;7.13;;
7933;SDS011;4012;48.896;9.192;2023-04-09T03:29:16;7.27;;;6.40;;
7933;SDS011;4012;48.896;9.192;2023-04-09T03:31:42;6.20;;;5.60;;
7933;SDS011;4012;48.896;9.192;2023-04-09T03:34:07;9.23;;;6.97;;
7933;SDS011;4012;48.896;9.192;2023-04-09T03:36:33;9.80;;;6.57;;
7933;SDS011;4012;48.896;9.192;2023-04-09T03:38:59;8.10;;;6.27;;
7933;SDS011;4012;48.896;9.192;2023-04-09T03:41:25;6.93;;;5.93;;
7933;SDS011;4012;48.896;9.192;2023-04-09T03:43:51;7.97;;;6.37;;
7933;SDS011;4012;48.896;9.192;2023-04-09T03:46:17;9.13;;;6.53;;
7933;SDS011;4012;48.896;9.192;2023-04-09T03:48:42;7.63;;;6.10;;
7933;SDS011;4012;48.896;9.192;2023-04-09T03:51:11;7.97;;;6.83;;
7933;SDS011;4012;48.896;9.192;2023-04-09T03:53:37;9.37;;;7.10;;
7933;SDS011;4012;48.896;9.192;2023-04-09T03:56:03;8.80;;;6.90;;
7933;SDS011;4012;48.896;9.192;2023-04-09T03:58:29;8.63;;;6.53;;
7933;SDS011;4012;48.896;9.192;2023-04-09T04:00:55;7.93;;;6.47;;
7933;SDS011;4012;48.896;9.192;2023-04-09T04:03:21;10.90;;;7.83;;
7933;SDS011;4012;48.896;9.192;2023-04-09T04:05:46;8.40;;;6.97;;
7933;SDS011;4012;48.896;9.192;2023-04-09T04:08:12;9.87;;;7.23;;
7933;SDS011;4012;48.896;9.192;2023-04-09T04:10:37;8.10;;;6.73;;
7933;SDS011;4012;48.896;9.192;2023-04-09T04:13:04;8.10;;;7.07;;
7933;SDS011;4012;48.896;9.192;2023-04-09T04:15:32;9.37;;;7.53;;
7933;SDS011;4012;48.896;9.192;2023-04-09T04:17:57;11.70;;;6.93;;
7933;SDS011;4012;48.896;9.192;2023-04-09T04:20:23;8.77;;;6.97;;
7933;SDS011;4012;48.896;9.192;2023-04-09T04:22:49;11.23;;;8.00;;
7933;SDS011;4012;48.896;9.192;2023-04-09T04:25:14;10.00;;;7.27;;
7933;SDS011;4012;48.896;9.192;2023-04-09T04:27:40;7.80;;;6.23;;
7933;SDS011;4012;48.896;9.192;2023-04-09T04:30:07;8.33;;;6.70;;
7933;SDS011;4012;48.896;9.192;2023-04-09T04:32:32;7.43;;;6.13;;
7933;SDS011;4012;48.896;9.192;2023-04-09T04:34:58;8.00;;;6.53;;
7933;SDS011;4012;48.896;9.192;2023-04-09T04:37:24;9.43;;;7.13;;
7933;SDS011;4012;48.896;9.192;2023-04-09T04:39:49;7.73;;;6.57;;
7933;SDS011;4012;48.896;9.192;2023-04-09T04:42:15;7.30;;;6.17;;
7933;SDS011;4012;48.896;9.192;2023-04-09T04:44:42;7.10;;;6.30;;
7933;SDS011;4012;48.896;9.192;2023-04-09T04:47:08;9.17;;;6.80;;
7933;SDS011;4012;48.896;9.192;2023-04-09T04:49:33;7.27;;;6.53;;
7933;SDS011;4012;48.896;9.192;2023-04-09T04:51:59;8.70;;;6.53;;
7933;SDS011;4012;48.896;9.192;2023-04-09T04:54:25;8.30;;;6.57;;
7933;SDS011;4012;48.896;9.192;2023-04-09T04:56:50;10.70;;;6.97;;
7933;SDS011;4012;48.896;9.192;2023-04-09T04:59:16;9.27;;;7.80;;
7933;SDS011;4012;48.896;9.192;2023-04-09T05:01:42;7.60;;;6.13;;
7933;SDS011;4012;48.896;9.192;2023-04-09T05:04:07;8.43;;;6.50;;
7933;SDS011;4012;48.896;9.192;2023-04-09T05:06:33;7.77;;;5.97;;
7933;SDS011;4012;48.896;9.192;2023-04-09T05:08:58;7.87;;;6.60;;
7933;SDS011;4012;48.896;9.192;2023-04-09T05:11:25;8.37;;;6.30;;
7933;SDS011;4012;48.896;9.192;2023-04-09T05:13:51;8.67;;;6.13;;
7933;SDS011;4012;48.896;9.192;2023-04-09T05:16:20;9.70;;;7.10;;
7933;SDS011;4012;48.896;9.192;2023-04-09T05:18:46;8.27;;;5.73;;
7933;SDS011;4012;48.896;9.192;2023-04-09T05:21:11;8.13;;;6.30;;
7933;SDS011;4012;48.896;9.192;2023-04-09T05:23:37;9.43;;;6.70;;
7933;SDS011;4012;48.896;9.192;2023-04-09T05:26:03;8.43;;;6.13;;
7933;SDS011;4012;48.896;9.192;2023-04-09T05:28:28;8.73;;;6.90;;
7933;SDS011;4012;48.896;9.192;2023-04-09T05:30:54;8.30;;;7.07;;
7933;SDS011;4012;48.896;9.192;2023-04-09T05:33:20;9.27;;;7.23;;
7933;SDS011;4012;48.896;9.192;2023-04-09T05:35:45;8.80;;;6.47;;
7933;SDS011;4012;48.896;9.192;2023-04-09T05:38:11;8.90;;;6.90;;
7933;SDS011;4012;48.896;9.192;2023-04-09T05:40:37;12.13;;;8.30;;
7933;SDS011;4012;48.896;9.192;2023-04-09T05:43:03;11.33;;;6.50;;
7933;SDS011;4012;48.896;9.192;2023-04-09T05:45:29;12.97;;;7.07;;
7933;SDS011;4012;48.896;9.192;2023-04-09T05:47:55;9.23;;;7.57;;
7933;SDS011;4012;48.896;9.192;2023-04-09T05:50:21;9.20;;;7.43;;
7933;SDS011;4012;48.896;9.192;2023-04-09T05:52:46;9.27;;;6.77;;
7933;SDS011;4012;48.896;9.192;2023-04-09T05:55:12;10.37;;;7.83;;
7933;SDS011;4012;48.896;9.192;2023-04-09T05:57:38;8.27;;;6.83;;
7933;SDS011;4012;48.896;9.192;2023-04-09T06:00:03;8.47;;;7.03;;
7933;SDS011;4012;48.896;9.192;2023-04-09T06:02:30;8.00;;;6.13;;
7933;SDS011;4012;48.896;9.192;2023-04-09T06:04:55;8.73;;;7.27;;
7933;SDS011;4012;48.896;9.192;2023-04-09T06:07:21;9.27;;;7.03;;
7933;SDS011;4012;48.896;9.192;2023-04-09T06:09:46;8.20;;;6.73;;
7933;SDS011;4012;48.896;9.192;2023-04-09T06:12:12;9.23;;;6.73;;
7933;SDS011;4012;48.896;9.192;2023-04-09T06:14:38;8.17;;;6.97;;
7933;SDS011;4012;48.896;9.192;2023-04-09T06:17:03;7.87;;;6.80;;
7933;SDS011;4012;48.896;9.192;2023-04-09T06:19:29;8.03;;;6.77;;
7933;SDS011;4012;48.896;9.192;2023-04-09T06:21:55;8.20;;;6.30;;
7933;SDS011;4012;48.896;9.192;2023-04-09T06:24:21;8.17;;;6.67;;
7933;SDS011;4012;48.896;9.192;2023-04-09T06:26:46;9.03;;;6.70;;
7933;SDS011;4012;48.896;9.192;2023-04-09T06:29:12;8.73;;;6.87;;
7933;SDS011;4012;48.896;9.192;2023-04-09T06:31:38;8.97;;;6.13;;
7933;SDS011;4012;48.896;9.192;2023-04-09T06:34:03;6.67;;;5.93;;
7933;SDS011;4012;48.896;9.192;2023-04-09T06:36:29;7.80;;;6.23;;
7933;SDS011;4012;48.896;9.192;2023-04-09T06:38:54;10.83;;;6.90;;
7933;SDS011;4012;48.896;9.192;2023-04-09T06:41:21;8.00;;;6.53;;
7933;SDS011;4012;48.896;9.192;2023-04-09T06:43:47;7.77;;;5.90;;
7933;SDS011;4012;48.896;9.192;2023-04-09T06:46:13;8.77;;;7.03;;
7933;SDS011;4012;48.896;9.192;2023-04-09T06:48:41;10.13;;;6.13;;
7933;SDS011;4012;48.896;9.192;2023-04-09T06:51:08;7.23;;;6.33;;
7933;SDS011;4012;48.896;9.192;2023-04-09T06:53:35;8.77;;;6.90;;
7933;SDS011;4012;48.896;9.192;2023-04-09T06:56:01;9.00;;;7.17;;
7933;SDS011;4012;48.896;9.192;2023-04-09T06:58:27;8.47;;;6.67;;
7933;SDS011;4012;48.896;9.192;2023-04-09T07:00:52;8.73;;;6.30;;
7933;SDS011;4012;48.896;9.192;2023-04-09T07:03:18;9.17;;;6.93;;
7933;SDS011;4012;48.896;9.192;2023-04-09T07:05:44;6.80;;;5.70;;
7933;SDS011;4012;48.896;9.192;2023-04-09T07:08:10;6.60;;;6.00;;
7933;SDS011;4012;48.896;9.192;2023-04-09T07:10:36;6.80;;;5.50;;
7933;SDS011;4012;48.896;9.192;2023-04-09T07:13:02;6.13;;;5.53;;
7933;SDS011;4012;48.896;9.192;2023-04-09T07:15:27;6.00;;;5.40;;
7933;SDS011;4012;48.896;9.192;2023-04-09T07:17:53;6.53;;;5.90;;
7933;SDS011;4012;48.896;9.192;2023-04-09T07:20:19;5.57;;;5.07;;
7933;SDS011;4012;48.896;9.192;2023-04-09T07:22:46;8.30;;;5.90;;
7933;SDS011;4012;48.896;9.192;2023-04-09T07:25:11;6.90;;;6.20;;
7933;SDS011;4012;48.896;9.192;2023-04-09T07:27:37;5.70;;;5.03;;
7933;SDS011;4012;48.896;9.192;2023-04-09T07:30:03;5.80;;;5.30;;
7933;SDS011;4012;48.896;9.192;2023-04-09T07:32:29;6.23;;;5.67;;
7933;SDS011;4012;48.896;9.192;2023-04-09T07:34:55;6.63;;;6.03;;
7933;SDS011;4012;48.896;9.192;2023-04-09T07:37:21;5.73;;;5.20;;
7933;SDS011;4012;48.896;9.192;2023-04-09T07:39:48;6.27;;;5.67;;
7933;SDS011;4012;48.896;9.192;2023-04-09T07:42:13;5.57;;;5.07;;
7933;SDS011;4012;48.896;9.192;2023-04-09T07:44:39;6.20;;;5.60;;
7933;SDS011;4012;48.896;9.192;2023-04-09T07:47:05;5.83;;;5.30;;
7933;SDS011;4012;48.896;9.192;2023-04-09T07:49:32;5.90;;;5.30;;
7933;SDS011;4012;48.896;9.192;2023-04-09T07:51:59;5.40;;;4.90;;
7933;SDS011;4012;48.896;9.192;2023-04-09T07:54:25;6.03;;;5.43;;
7933;SDS011;4012;48.896;9.192;2023-04-09T07:56:50;6.10;;;5.50;;
7933;SDS011;4012;48.896;9.192;2023-04-09T07:59:16;6.17;;;5.57;;
7933;SDS011;4012;48.896;9.192;2023-04-09T08:01:42;5.87;;;4.87;;
7933;SDS011;4012;48.896;9.192;2023-04-09T08:04:08;5.63;;;5.10;;
7933;SDS011;4012;48.896;9.192;2023-04-09T08:06:36;5.63;;;5.13;;
7933;SDS011;4012;48.896;9.192;2023-04-09T08:09:02;5.20;;;4.70;;
7933;SDS011;4012;48.896;9.192;2023-04-09T08:11:28;5.60;;;5.00;;
7933;SDS011;4012;48.896;9.192;2023-04-09T08:13:53;5.30;;;4.80;;
7933;SDS011;4012;48.896;9.192;2023-04-09T08:16:20;5.17;;;4.73;;
7933;SDS011;4012;48.896;9.192;2023-04-09T08:18:47;4.67;;;4.27;;
7933;SDS011;4012;48.896;9.192;2023-04-09T08:21:13;4.27;;;3.97;;
7933;SDS011;4012;48.896;9.192;2023-04-09T08:23:39;4.43;;;4.03;;
7933;SDS011;4012;48.896;9.192;2023-04-09T08:26:05;4.23;;;3.83;;
7933;SDS011;4012;48.896;9.192;2023-04-09T08:28:30;4.27;;;3.80;;
7933;SDS011;4012;48.896;9.192;2023-04-09T08:30:56;4.30;;;3.90;;
7933;SDS011;4012;48.896;9.192;2023-04-09T08:33:22;4.07;;;3.67;;
7933;SDS011;4012;48.896;9.192;2023-04-09T08:35:47;4.23;;;3.83;;
7933;SDS011;4012;48.896;9.192;2023-04-09T08:38:13;4.50;;;4.10;;
7933;SDS011;4012;48.896;9.192;2023-04-09T08:40:39;4.27;;;3.87;;
7933;SDS011;4012;48.896;9.192;2023-04-09T08:43:05;4.27;;;3.87;;
7933;SDS011;4012;48.896;9.192;2023-04-09T08:45:33;4.27;;;3.87;;
7933;SDS011;4012;48.896;9.192;2023-04-09T08:47:58;4.97;;;4.27;;
7933;SDS011;4012;48.896;9.192;2023-04-09T08:50:27;3.80;;;3.50;;
7933;SDS011;4012;48.896;9.192;2023-04-09T08:52:55;3.87;;;3.53;;
7933;SDS011;4012;48.896;9.192;2023-04-09T08:55:22;4.23;;;3.90;;
7933;SDS011;4012;48.896;9.192;2023-04-09T08:57:47;3.87;;;3.47;;
7933;SDS011;4012;48.896;9.192;2023-04-09T09:00:13;4.93;;;4.20;;
7933;SDS011;4012;48.896;9.192;2023-04-09T09:02:49;4.33;;;3.93;;
7933;SDS011;4012;48.896;9.192;2023-04-09T09:05:39;3.73;;;3.43;;
7933;SDS011;4012;48.896;9.192;2023-04-09T09:08:09;2.50;;;2.30;;
7933;SDS011;4012;48.896;9.192;2023-04-09T09:10:42;2.67;;;2.43;;
7933;SDS011;4012;48.896;9.192;2023-04-09T09:13:27;3.53;;;3.23;;
7933;SDS011;4012;48.896;9.192;2023-04-09T09:15:53;4.10;;;3.70;;
7933;SDS011;4012;48.896;9.192;2023-04-09T09:18:37;3.50;;;3.20;;
7933;SDS011;4012;48.896;9.192;2023-04-09T09:23:39;4.50;;;4.07;;
7933;SDS011;4012;48.896;9.192;2023-04-09T09:26:16;4.83;;;4.00;;
7933;SDS011;4012;48.896;9.192;2023-04-09T09:28:43;4.90;;;3.67;;
7933;SDS011;4012;48.896;9.192;2023-04-09T09:31:13;4.10;;;3.70;;
7933;SDS011;4012;48.896;9.192;2023-04-09T09:33:39;4.60;;;4.20;;
7933;SDS011;4012;48.896;9.192;2023-04-09T09:36:06;4.10;;;3.67;;
7933;SDS011;4012;48.896;9.192;2023-04-09T09:38:53;4.10;;;3.67;;
7933;SDS011;4012;48.896;9.192;2023-04-09T09:41:21;4.20;;;3.80;;
7933;SDS011;4012;48.896;9.192;2023-04-09T09:43:48;4.57;;;3.70;;
7933;SDS011;4012;48.896;9.192;2023-04-09T09:46:14;3.83;;;3.43;;
7933;SDS011;4012;48.896;9.192;2023-04-09T09:48:40;4.23;;;3.83;;
7933;SDS011;4012;48.896;9.192;2023-04-09T09:51:10;5.13;;;3.90;;
7933;SDS011;4012;48.896;9.192;2023-04-09T09:53:37;3.40;;;3.10;;
7933;SDS011;4012;48.896;9.192;2023-04-09T09:56:05;3.80;;;3.47;;
7933;SDS011;4012;48.896;9.192;2023-04-09T09:58:36;3.63;;;3.33;;
7933;SDS011;4012;48.896;9.192;2023-04-09T10:01:09;4.50;;;3.53;;
7933;SDS011;4012;48.896;9.192;2023-04-09T10:03:38;3.47;;;2.97;;
7933;SDS011;4012;48.896;9.192;2023-04-09T10:06:05;3.70;;;3.10;;
7933;SDS011;4012;48.896;9.192;2023-04-09T10:08:32;3.33;;;3.03;;
7933;SDS011;4012;48.896;9.192;2023-04-09T10:10:59;3.70;;;3.30;;
7933;SDS011;4012;48.896;9.192;2023-04-09T10:13:32;4.10;;;3.70;;
7933;SDS011;4012;48.896;9.192;2023-04-09T10:16:01;5.33;;;4.40;;
7933;SDS011;4012;48.896;9.192;2023-04-09T10:18:30;3.97;;;3.27;;
7933;SDS011;4012;48.896;9.192;2023-04-09T10:21:00;3.50;;;3.20;;
7933;SDS011;4012;48.896;9.192;2023-04-09T10:26:06;3.50;;;3.03;;
7933;SDS011;4012;48.896;9.192;2023-04-09T10:28:32;4.43;;;3.87;;
7933;SDS011;4012;48.896;9.192;2023-04-09T10:30:58;8.97;;;5.50;;
7933;SDS011;4012;48.896;9.192;2023-04-09T10:33:25;11.27;;;6.93;;
7933;SDS011;4012;48.896;9.192;2023-04-09T10:35:52;2.40;;;2.20;;
7933;SDS011;4012;48.896;9.192;2023-04-09T10:38:38;2.67;;;2.43;;
7933;SDS011;4012;48.896;9.192;2023-04-09T10:41:26;5.43;;;4.07;;
7933;SDS011;4012;48.896;9.192;2023-04-09T10:43:53;4.33;;;3.83;;
7933;SDS011;4012;48.896;9.192;2023-04-09T10:46:33;2.10;;;2.00;;
7933;SDS011;4012;48.896;9.192;2023-04-09T10:49:08;3.47;;;2.73;;
7933;SDS011;4012;48.896;9.192;2023-04-09T10:51:35;3.20;;;2.90;;
7933;SDS011;4012;48.896;9.192;2023-04-09T10:54:05;3.20;;;2.90;;
7933;SDS011;4012;48.896;9.192;2023-04-09T10:56:31;2.97;;;2.67;;
7933;SDS011;4012;48.896;9.192;2023-04-09T10:58:57;3.47;;;3.17;;
7933;SDS011;4012;48.896;9.192;2023-04-09T11:01:23;4.10;;;3.20;;
7933;SDS011;4012;48.896;9.192;2023-04-09T11:04:06;3.40;;;2.80;;
7933;SDS011;4012;48.896;9.192;2023-04-09T11:06:34;2.67;;;2.47;;
7933;SDS011;4012;48.896;9.192;2023-04-09T11:09:01;3.07;;;2.77;;
7933;SDS011;4012;48.896;9.192;2023-04-09T11:11:29;3.20;;;2.90;;
7933;SDS011;4012;48.896;9.192;2023-04-09T11:13:58;3.10;;;2.80;;
7933;SDS011;4012;48.896;9.192;2023-04-09T11:16:30;2.60;;;2.40;;
7933;SDS011;4012;48.896;9.192;2023-04-09T11:18:56;3.13;;;2.60;;
7933;SDS011;4012;48.896;9.192;2023-04-09T11:21:25;2.27;;;2.00;;
7933;SDS011;4012;48.896;9.192;2023-04-09T11:23:52;3.27;;;2.97;;
7933;SDS011;4012;48.896;9.192;2023-04-09T11:26:22;3.10;;;2.77;;
7933;SDS011;4012;48.896;9.192;2023-04-09T11:29:03;3.60;;;2.60;;
7933;SDS011;4012;48.896;9.192;2023-04-09T11:31:30;2.90;;;2.60;;
7933;SDS011;4012;48.896;9.192;2023-04-09T11:33:55;3.20;;;2.90;;
7933;SDS011;4012;48.896;9.192;2023-04-09T11:36:21;3.30;;;3.00;;
7933;SDS011;4012;48.896;9.192;2023-04-09T11:38:47;3.57;;;2.90;;
7933;SDS011;4012;48.896;9.192;2023-04-09T11:41:14;3.10;;;2.80;;
7933;SDS011;4012;48.896;9.192;2023-04-09T11:43:40;3.10;;;2.80;;
7933;SDS011;4012;48.896;9.192;2023-04-09T11:46:06;3.67;;;3.10;;
7933;SDS011;4012;48.896;9.192;2023-04-09T11:48:32;4.03;;;3.50;;
7933;SDS011;4012;48.896;9.192;2023-04-09T11:50:59;2.87;;;2.60;;
7933;SDS011;4012;48.896;9.192;2023-04-09T11:53:29;2.77;;;2.53;;
7933;SDS011;4012;48.896;9.192;2023-04-09T11:55:55;2.30;;;2.00;;
7933;SDS011;4012;48.896;9.192;2023-04-09T11:58:21;2.77;;;2.53;;
7933;SDS011;4012;48.896;9.192;2023-04-09T12:00:51;1.90;;;1.73;;
7933;SDS011;4012;48.896;9.192;2023-04-09T12:03:17;2.87;;;2.67;;
7933;SDS011;4012;48.896;9.192;2023-04-09T12:05:44;3.73;;;3.27;;
7933;SDS011;4012;48.896;9.192;2023-04-09T12:08:13;2.63;;;2.37;;
7933;SDS011;4012;48.896;9.192;2023-04-09T12:10:40;3.53;;;2.50;;
7933;SDS011;4012;48.896;9.192;2023-04-09T12:13:07;2.50;;;2.30;;
7933;SDS011;4012;48.896;9.192;2023-04-09T12:15:35;3.13;;;2.83;;
7933;SDS011;4012;48.896;9.192;2023-04-09T12:18:01;2.83;;;2.53;;
7933;SDS011;4012;48.896;9.192;2023-04-09T12:20:34;3.10;;;2.80;;
7933;SDS011;4012;48.896;9.192;2023-04-09T12:23:03;3.60;;;3.20;;
7933;SDS011;4012;48.896;9.192;2023-04-09T12:25:30;2.60;;;2.40;;
7933;SDS011;4012;48.896;9.192;2023-04-09T12:27:57;3.47;;;2.70;;
7933;SDS011;4012;48.896;9.192;2023-04-09T12:30:23;2.63;;;2.43;;
7933;SDS011;4012;48.896;9.192;2023-04-09T12:32:50;2.90;;;2.60;;
7933;SDS011;4012;48.896;9.192;2023-04-09T12:35:16;3.33;;;3.00;;
7933;SDS011;4012;48.896;9.192;2023-04-09T12:37:42;3.30;;;2.73;;
7933;SDS011;4012;48.896;9.192;2023-04-09T12:40:08;2.70;;;2.50;;
7933;SDS011;4012;48.896;9.192;2023-04-09T12:42:37;2.63;;;2.43;;
7933;SDS011;4012;48.896;9.192;2023-04-09T12:45:04;2.10;;;1.90;;
7933;SDS011;4012;48.896;9.192;2023-04-09T12:47:30;2.47;;;2.27;;
7933;SDS011;4012;48.896;9.192;2023-04-09T12:49:56;3.47;;;2.50;;
7933;SDS011;4012;48.896;9.192;2023-04-09T12:52:21;2.60;;;2.40;;
7933;SDS011;4012;48.896;9.192;2023-04-09T12:54:48;2.53;;;2.33;;
7933;SDS011;4012;48.896;9.192;2023-04-09T12:57:15;2.37;;;2.13;;
7933;SDS011;4012;48.896;9.192;2023-04-09T12:59:40;2.30;;;2.10;;
7933;SDS011;4012;48.896;9.192;2023-04-09T13:02:06;2.43;;;2.23;;
7933;SDS011;4012;48.896;9.192;2023-04-09T13:04:33;3.20;;;2.40;;
7933;SDS011;4012;48.896;9.192;2023-04-09T13:06:58;2.57;;;2.33;;
7933;SDS011;4012;48.896;9.192;2023-04-09T13:09:24;3.00;;;2.33;;
7933;SDS011;4012;48.896;9.192;2023-04-09T13:11:50;3.40;;;3.10;;
7933;SDS011;4012;48.896;9.192;2023-04-09T13:14:16;2.77;;;2.23;;
7933;SDS011;4012;48.896;9.192;2023-04-09T13:16:41;2.60;;;2.40;;
7933;SDS011;4012;48.896;9.192;2023-04-09T13:19:07;2.93;;;2.63;;
7933;SDS011;4012;48.896;9.192;2023-04-09T13:21:33;2.70;;;2.50;;
7933;SDS011;4012;48.896;9.192;2023-04-09T13:24:00;2.50;;;2.30;;
7933;SDS011;4012;48.896;9.192;2023-04-09T13:26:26;2.43;;;2.20;;
7933;SDS011;4012;48.896;9.192;2023-04-09T13:28:52;2.70;;;2.50;;
7933;SDS011;4012;48.896;9.192;2023-04-09T13:31:18;3.40;;;2.53;;
7933;SDS011;4012;48.896;9.192;2023-04-09T13:33:43;2.37;;;2.13;;
7933;SDS011;4012;48.896;9.192;2023-04-09T13:36:09;2.27;;;2.07;;
7933;SDS011;4012;48.896;9.192;2023-04-09T13:38:36;3.17;;;2.73;;
7933;SDS011;4012;48.896;9.192;2023-04-09T13:41:01;2.73;;;2.43;;
7933;SDS011;4012;48.896;9.192;2023-04-09T13:43:27;2.40;;;2.20;;
7933;SDS011;4012;48.896;9.192;2023-04-09T13:45:53;3.13;;;2.83;;
7933;SDS011;4012;48.896;9.192;2023-04-09T13:48:22;2.60;;;2.40;;
7933;SDS011;4012;48.896;9.192;2023-04-09T13:50:48;2.57;;;2.30;;
7933;SDS011;4012;48.896;9.192;2023-04-09T13:53:14;2.40;;;2.20;;
7933;SDS011;4012;48.896;9.192;2023-04-09T13:55:41;2.80;;;2.33;;
7933;SDS011;4012;48.896;9.192;2023-04-09T13:58:07;3.40;;;3.03;;
7933;SDS011;4012;48.896;9.192;2023-04-09T14:00:33;2.73;;;2.43;;
7933;SDS011;4012;48.896;9.192;2023-04-09T14:03:00;2.50;;;2.30;;
7933;SDS011;4012;48.896;9.192;2023-04-09T14:05:27;2.40;;;2.20;;
7933;SDS011;4012;48.896;9.192;2023-04-09T14:07:53;4.33;;;2.90;;
7933;SDS011;4012;48.896;9.192;2023-04-09T14:10:19;2.93;;;2.60;;
7933;SDS011;4012;48.896;9.192;2023-04-09T14:12:44;2.60;;;2.33;;
7933;SDS011;4012;48.896;9.192;2023-04-09T14:15:10;2.60;;;2.40;;
7933;SDS011;4012;48.896;9.192;2023-04-09T14:17:36;2.80;;;2.50;;
7933;SDS011;4012;48.896;9.192;2023-04-09T14:20:01;2.50;;;2.30;;
7933;SDS011;4012;48.896;9.192;2023-04-09T14:22:30;2.77;;;2.50;;
7933;SDS011;4012;48.896;9.192;2023-04-09T14:24:55;3.03;;;2.10;;
7933;SDS011;4012;48.896;9.192;2023-04-09T14:27:21;2.30;;;2.10;;
7933;SDS011;4012;48.896;9.192;2023-04-09T14:29:47;2.00;;;1.80;;
7933;SDS011;4012;48.896;9.192;2023-04-09T14:32:12;2.60;;;2.23;;
7933;SDS011;4012;48.896;9.192;2023-04-09T14:34:38;3.10;;;2.07;;
7933;SDS011;4012;48.896;9.192;2023-04-09T14:37:03;2.70;;;2.30;;
7933;SDS011;4012;48.896;9.192;2023-04-09T14:39:29;5.30;;;2.10;;
7933;SDS011;4012;48.896;9.192;2023-04-09T14:41:55;2.53;;;2.33;;
7933;SDS011;4012;48.896;9.192;2023-04-09T14:44:21;2.40;;;2.20;;
7933;SDS011;4012;48.896;9.192;2023-04-09T14:46:49;3.53;;;2.97;;
7933;SDS011;4012;48.896;9.192;2023-04-09T14:49:16;2.97;;;2.67;;
7933;SDS011;4012;48.896;9.192;2023-04-09T14:51:42;2.73;;;2.30;;
7933;SDS011;4012;48.896;9.192;2023-04-09T14:54:07;2.70;;;2.43;;
7933;SDS011;4012;48.896;9.192;2023-04-09T14:56:33;4.07;;;2.40;;
7933;SDS011;4012;48.896;9.192;2023-04-09T14:58:59;3.57;;;2.83;;
7933;SDS011;4012;48.896;9.192;2023-04-09T15:01:25;3.57;;;2.90;;
7933;SDS011;4012;48.896;9.192;2023-04-09T15:03:51;3.23;;;2.93;;
7933;SDS011;4012;48.896;9.192;2023-04-09T15:06:18;4.00;;;3.33;;
7933;SDS011;4012;48.896;9.192;2023-04-09T15:08:43;3.10;;;2.80;;
7933;SDS011;4012;48.896;9.192;2023-04-09T15:11:16;3.77;;;3.23;;
7933;SDS011;4012;48.896;9.192;2023-04-09T15:13:42;3.80;;;3.07;;
7933;SDS011;4012;48.896;9.192;2023-04-09T15:16:08;3.00;;;2.70;;
7933;SDS011;4012;48.896;9.192;2023-04-09T15:18:34;3.53;;;2.80;;
7933;SDS011;4012;48.896;9.192;2023-04-09T15:21:01;2.90;;;2.50;;
7933;SDS011;4012;48.896;9.192;2023-04-09T15:23:27;2.57;;;2.37;;